createdAt,value
2016-11-09T00:00:47.697Z,721.27
2016-11-09T00:01:47.664Z,721.31
2016-11-09T00:02:47.639Z,721.36
2016-11-09T00:03:47.619Z,721.27
2016-11-09T00:04:47.587Z,721.35
2016-11-09T00:05:47.561Z,721.42
2016-11-09T00:06:47.534Z,721.32
2016-11-09T00:07:47.509Z,721.28
2016-11-09T00:08:47.489Z,721.26
2016-11-09T00:09:47.461Z,721.17
2016-11-09T00:10:47.431Z,721.21
2016-11-09T00:11:47.405Z,721.19
2016-11-09T00:12:47.385Z,721.29
2016-11-09T00:13:47.354Z,721.33
2016-11-09T00:14:47.333Z,721.17
2016-11-09T00:15:47.300Z,721.26
2016-11-09T00:16:47.282Z,721.19
2016-11-09T00:17:47.249Z,721.26
2016-11-09T00:18:47.222Z,721.27
2016-11-09T00:19:47.204Z,721.26
2016-11-09T00:20:47.178Z,721.2
2016-11-09T00:21:47.144Z,721.05
2016-11-09T00:22:47.120Z,721.11
2016-11-09T00:23:47.094Z,721.12
2016-11-09T00:24:47.075Z,721.18
2016-11-09T00:25:47.041Z,721.22
2016-11-09T00:26:47.016Z,721.18
2016-11-09T00:27:46.991Z,721.25
2016-11-09T00:28:46.971Z,721.34
2016-11-09T00:29:46.938Z,721.27
2016-11-09T00:30:46.914Z,721.26
2016-11-09T00:31:46.894Z,721.26
2016-11-09T00:32:46.868Z,721.19
2016-11-09T00:33:46.843Z,721.2
2016-11-09T00:34:46.817Z,721.11
2016-11-09T00:35:46.792Z,721.23
2016-11-09T00:36:46.765Z,721.21
2016-11-09T00:37:46.733Z,721.21
2016-11-09T00:38:46.714Z,721.19
2016-11-09T00:39:46.680Z,721.19
2016-11-09T00:40:46.661Z,721.2
2016-11-09T00:41:46.628Z,721.2
2016-11-09T00:42:46.609Z,721.19
2016-11-09T00:43:46.582Z,721.16
2016-11-09T00:44:46.550Z,721.11
2016-11-09T00:45:46.531Z,721.13
2016-11-09T00:46:46.499Z,721.13
2016-11-09T00:47:46.478Z,721.13
2016-11-09T00:48:46.445Z,721.12
2016-11-09T00:49:46.426Z,721.17
2016-11-09T00:50:46.399Z,721.16
2016-11-09T00:51:46.373Z,721.17
2016-11-09T00:52:46.347Z,721.14
2016-11-09T00:53:46.321Z,721.15
2016-11-09T00:54:46.287Z,721.14
2016-11-09T00:55:46.268Z,721.13
2016-11-09T00:56:46.242Z,721.14
2016-11-09T00:57:46.216Z,721.13
2016-11-09T00:58:46.182Z,721.05
2016-11-09T00:59:46.162Z,721.1
2016-11-09T01:00:46.130Z,721.07
2016-11-09T01:01:46.109Z,721.16
2016-11-09T01:02:46.077Z,721.05
2016-11-09T01:03:46.051Z,721.03
2016-11-09T01:04:46.024Z,721.08
2016-11-09T01:05:46.004Z,721.03
2016-11-09T01:06:45.978Z,721.02
2016-11-09T01:07:45.945Z,721.01
2016-11-09T01:08:45.920Z,720.95
2016-11-09T01:09:45.894Z,721.01
2016-11-09T01:10:45.875Z,720.97
2016-11-09T01:11:45.843Z,720.89
2016-11-09T01:12:45.823Z,721.02
2016-11-09T01:13:45.790Z,720.94
2016-11-09T01:14:45.764Z,720.98
2016-11-09T01:15:45.739Z,720.92
2016-11-09T01:16:45.712Z,720.93
2016-11-09T01:17:45.687Z,720.89
2016-11-09T01:18:45.669Z,721.01
2016-11-09T01:19:45.642Z,720.97
2016-11-09T01:20:45.617Z,720.97
2016-11-09T01:21:45.591Z,720.93
2016-11-09T01:22:45.559Z,720.95
2016-11-09T01:23:45.533Z,720.95
2016-11-09T01:24:45.514Z,720.89
2016-11-09T01:25:45.488Z,720.85
2016-11-09T01:26:45.463Z,720.9
2016-11-09T01:27:45.429Z,720.89
2016-11-09T01:28:45.404Z,720.86
2016-11-09T01:29:45.385Z,720.82
2016-11-09T01:30:45.351Z,720.85
2016-11-09T01:31:45.333Z,720.81
2016-11-09T01:32:45.307Z,720.79
2016-11-09T01:33:45.282Z,720.78
2016-11-09T01:34:45.255Z,720.74
2016-11-09T01:35:45.223Z,720.73
2016-11-09T01:36:45.198Z,720.79
2016-11-09T01:37:45.172Z,720.78
2016-11-09T01:38:45.144Z,720.8
2016-11-09T01:39:45.126Z,720.73
2016-11-09T01:40:45.094Z,720.78
2016-11-09T01:41:45.067Z,720.86
2016-11-09T01:42:45.042Z,720.8
2016-11-09T01:43:45.023Z,720.72
2016-11-09T01:44:44.990Z,720.7
2016-11-09T01:45:44.963Z,720.72
2016-11-09T01:46:44.940Z,720.75
2016-11-09T01:47:44.914Z,720.73
2016-11-09T01:48:44.894Z,720.7
2016-11-09T01:49:44.867Z,720.76
2016-11-09T01:50:44.841Z,720.72
2016-11-09T01:51:44.808Z,720.74
2016-11-09T01:52:44.789Z,720.75
2016-11-09T01:53:44.763Z,720.65
2016-11-09T01:54:44.737Z,720.76
2016-11-09T01:55:44.704Z,720.61
2016-11-09T01:56:44.679Z,720.55
2016-11-09T01:57:44.653Z,720.67
2016-11-09T01:58:44.634Z,720.72
2016-11-09T01:59:44.608Z,720.7
2016-11-09T02:00:44.574Z,720.6
2016-11-09T02:01:44.549Z,720.65
2016-11-09T02:02:44.530Z,720.7
2016-11-09T02:03:44.504Z,720.64
2016-11-09T02:04:44.472Z,720.69
2016-11-09T02:05:44.447Z,720.65
2016-11-09T02:06:44.432Z,720.63
2016-11-09T02:07:44.402Z,720.65
2016-11-09T02:08:44.370Z,720.62
2016-11-09T02:09:44.344Z,720.54
2016-11-09T02:10:44.319Z,720.63
2016-11-09T02:11:44.293Z,720.5
2016-11-09T02:12:44.269Z,720.55
2016-11-09T02:13:44.250Z,720.56
2016-11-09T02:14:44.216Z,720.6
2016-11-09T02:15:44.198Z,720.5
2016-11-09T02:16:44.165Z,720.31
2016-11-09T02:17:44.149Z,720.47
2016-11-09T02:18:44.112Z,720.47
2016-11-09T02:19:44.094Z,720.45
2016-11-09T02:20:44.068Z,720.4
2016-11-09T02:21:44.036Z,720.44
2016-11-09T02:22:44.009Z,720.35
2016-11-09T02:23:43.982Z,720.39
2016-11-09T02:24:43.963Z,720.4
2016-11-09T02:25:43.930Z,720.41
2016-11-09T02:26:43.903Z,720.36
2016-11-09T02:27:43.885Z,720.34
2016-11-09T02:28:43.851Z,720.34
2016-11-09T02:29:43.825Z,720.33
2016-11-09T02:30:43.800Z,720.36
2016-11-09T02:31:43.781Z,720.3
2016-11-09T02:32:43.747Z,720.38
2016-11-09T02:33:43.728Z,720.25
2016-11-09T02:34:43.696Z,720.31
2016-11-09T02:35:43.669Z,720.36
2016-11-09T02:36:43.650Z,720.42
2016-11-09T02:37:43.624Z,720.41
2016-11-09T02:38:43.599Z,720.34
2016-11-09T02:39:43.566Z,720.43
2016-11-09T02:40:43.547Z,720.37
2016-11-09T02:41:43.521Z,720.36
2016-11-09T02:42:43.490Z,720.25
2016-11-09T02:43:43.464Z,720.26
2016-11-09T02:44:43.445Z,720.33
2016-11-09T02:45:43.412Z,720.34
2016-11-09T02:46:43.388Z,720.32
2016-11-09T02:47:43.367Z,720.33
2016-11-09T02:48:43.342Z,720.26
2016-11-09T02:49:43.316Z,720.31
2016-11-09T02:50:43.284Z,720.32
2016-11-09T02:51:43.265Z,720.26
2016-11-09T02:52:43.239Z,720.27
2016-11-09T02:53:43.214Z,720.22
2016-11-09T02:54:43.187Z,720.2
2016-11-09T02:55:43.162Z,720.15
2016-11-09T02:56:43.130Z,720.16
2016-11-09T02:57:43.111Z,720.18
2016-11-09T02:58:43.077Z,720.21
2016-11-09T02:59:43.059Z,720.16
2016-11-09T03:00:43.034Z,720.14
2016-11-09T03:01:43.008Z,720.04
2016-11-09T03:02:42.975Z,720.06
2016-11-09T03:03:42.955Z,720.05
2016-11-09T03:04:42.930Z,720.07
2016-11-09T03:05:42.903Z,720.14
2016-11-09T03:06:42.870Z,720.09
2016-11-09T03:07:42.845Z,720.04
2016-11-09T03:08:42.826Z,720.01
2016-11-09T03:09:42.799Z,720.13
2016-11-09T03:10:42.773Z,720.07
2016-11-09T03:11:42.748Z,720.04
2016-11-09T03:12:42.722Z,720
2016-11-09T03:13:42.689Z,719.93
2016-11-09T03:14:42.669Z,719.97
2016-11-09T03:15:42.637Z,720.05
2016-11-09T03:16:42.616Z,720
2016-11-09T03:17:42.583Z,719.97
2016-11-09T03:18:42.557Z,720.08
2016-11-09T03:19:42.538Z,720.03
2016-11-09T03:20:42.504Z,719.98
2016-11-09T03:21:42.485Z,719.96
2016-11-09T03:22:42.459Z,719.96
2016-11-09T03:23:42.426Z,719.95
2016-11-09T03:24:42.399Z,719.91
2016-11-09T03:25:42.373Z,719.88
2016-11-09T03:26:42.354Z,719.89
2016-11-09T03:27:42.321Z,719.94
2016-11-09T03:28:42.301Z,719.9
2016-11-09T03:29:42.268Z,719.94
2016-11-09T03:30:42.249Z,719.97
2016-11-09T03:31:42.222Z,719.83
2016-11-09T03:32:42.189Z,719.91
2016-11-09T03:33:42.162Z,719.86
2016-11-09T03:34:42.140Z,719.91
2016-11-09T03:35:42.117Z,719.83
2016-11-09T03:36:42.091Z,719.83
2016-11-09T03:37:42.059Z,719.77
2016-11-09T03:38:42.038Z,719.89
2016-11-09T03:39:42.005Z,719.87
2016-11-09T03:40:41.980Z,719.85
2016-11-09T03:41:41.960Z,719.86
2016-11-09T03:42:41.933Z,719.94
2016-11-09T03:43:41.899Z,719.86
2016-11-09T03:44:41.875Z,719.91
2016-11-09T03:45:41.855Z,719.87
2016-11-09T03:46:41.821Z,719.85
2016-11-09T03:47:41.795Z,719.81
2016-11-09T03:48:41.775Z,719.81
2016-11-09T03:49:41.748Z,719.8
2016-11-09T03:50:41.722Z,719.78
2016-11-09T03:51:41.690Z,719.81
2016-11-09T03:52:41.670Z,719.83
2016-11-09T03:53:41.644Z,719.69
2016-11-09T03:54:41.618Z,719.77
2016-11-09T03:55:41.584Z,719.76
2016-11-09T03:56:41.565Z,719.76
2016-11-09T03:57:41.539Z,719.72
2016-11-09T03:58:41.507Z,719.78
2016-11-09T03:59:41.487Z,719.73
2016-11-09T04:00:41.461Z,719.71
2016-11-09T04:01:41.428Z,719.73
2016-11-09T04:02:41.409Z,719.77
2016-11-09T04:03:41.384Z,719.71
2016-11-09T04:04:41.350Z,719.75
2016-11-09T04:05:41.331Z,719.72
2016-11-09T04:06:41.305Z,719.75
2016-11-09T04:07:41.273Z,719.7
2016-11-09T04:08:41.246Z,719.8
2016-11-09T04:09:41.219Z,719.75
2016-11-09T04:10:41.200Z,719.75
2016-11-09T04:11:41.167Z,719.76
2016-11-09T04:12:41.148Z,719.79
2016-11-09T04:13:41.122Z,719.76
2016-11-09T04:14:41.096Z,719.81
2016-11-09T04:15:41.063Z,719.71
2016-11-09T04:16:41.044Z,719.74
2016-11-09T04:17:41.012Z,719.7
2016-11-09T04:18:40.985Z,719.72
2016-11-09T04:19:40.967Z,719.64
2016-11-09T04:20:40.941Z,719.62
2016-11-09T04:21:40.916Z,719.65
2016-11-09T04:22:40.889Z,719.71
2016-11-09T04:23:40.856Z,719.71
2016-11-09T04:24:40.830Z,719.64
2016-11-09T04:25:40.811Z,719.67
2016-11-09T04:26:40.778Z,719.63
2016-11-09T04:27:40.751Z,719.6
2016-11-09T04:28:40.732Z,719.59
2016-11-09T04:29:40.705Z,719.69
2016-11-09T04:30:40.672Z,719.65
2016-11-09T04:31:40.646Z,719.58
2016-11-09T04:32:40.624Z,719.6
2016-11-09T04:33:40.600Z,719.57
2016-11-09T04:34:40.574Z,719.62
2016-11-09T04:35:40.541Z,719.58
2016-11-09T04:36:40.523Z,719.47
2016-11-09T04:37:40.495Z,719.53
2016-11-09T04:38:40.462Z,719.4
2016-11-09T04:39:40.436Z,719.43
2016-11-09T04:40:40.408Z,719.45
2016-11-09T04:41:40.383Z,719.55
2016-11-09T04:42:40.355Z,719.48
2016-11-09T04:43:40.330Z,719.5
2016-11-09T04:44:40.301Z,719.45
2016-11-09T04:45:40.283Z,719.54
2016-11-09T04:46:40.256Z,719.44
2016-11-09T04:47:40.222Z,719.41
2016-11-09T04:48:40.202Z,719.39
2016-11-09T04:49:40.170Z,719.42
2016-11-09T04:50:40.150Z,719.43
2016-11-09T04:51:40.115Z,719.48
2016-11-09T04:52:40.097Z,719.45
2016-11-09T04:53:40.070Z,719.48
2016-11-09T04:54:40.037Z,719.51
2016-11-09T04:55:40.017Z,719.48
2016-11-09T04:56:39.983Z,719.46
2016-11-09T04:57:39.964Z,719.44
2016-11-09T04:58:39.932Z,719.43
2016-11-09T04:59:39.903Z,719.41
2016-11-09T05:00:39.889Z,719.4
2016-11-09T05:01:39.858Z,719.38
2016-11-09T05:02:39.831Z,719.42
2016-11-09T05:03:39.805Z,719.33
2016-11-09T05:04:39.771Z,719.38
2016-11-09T05:05:39.746Z,719.41
2016-11-09T05:06:39.726Z,719.46
2016-11-09T05:07:39.693Z,719.33
2016-11-09T05:08:39.673Z,719.34
2016-11-09T05:09:39.647Z,719.35
2016-11-09T05:10:39.620Z,719.39
2016-11-09T05:11:39.587Z,719.36
2016-11-09T05:12:39.568Z,719.37
2016-11-09T05:13:39.541Z,719.34
2016-11-09T05:14:39.515Z,719.35
2016-11-09T05:15:39.482Z,719.39
2016-11-09T05:16:39.457Z,719.28
2016-11-09T05:17:39.436Z,719.38
2016-11-09T05:18:39.411Z,719.33
2016-11-09T05:19:39.385Z,719.31
2016-11-09T05:20:39.359Z,719.24
2016-11-09T05:21:39.326Z,719.31
2016-11-09T05:22:39.307Z,719.27
2016-11-09T05:23:39.281Z,719.33
2016-11-09T05:24:39.254Z,719.32
2016-11-09T05:25:39.221Z,719.28
2016-11-09T05:26:39.199Z,719.28
2016-11-09T05:27:39.171Z,719.19
2016-11-09T05:28:39.143Z,719.14
2016-11-09T05:29:39.124Z,719.18
2016-11-09T05:30:39.091Z,719.12
2016-11-09T05:31:39.071Z,719.29
2016-11-09T05:32:39.038Z,719.12
2016-11-09T05:33:39.012Z,719.23
2016-11-09T05:34:38.985Z,719.25
2016-11-09T05:35:38.957Z,719.18
2016-11-09T05:36:38.930Z,719.08
2016-11-09T05:37:38.903Z,719.2
2016-11-09T05:38:38.884Z,719.25
2016-11-09T05:39:38.856Z,719.2
2016-11-09T05:40:38.830Z,719.24
2016-11-09T05:41:38.797Z,719.23
2016-11-09T05:42:38.770Z,719.19
2016-11-09T05:43:38.743Z,719.17
2016-11-09T05:44:38.715Z,719.17
2016-11-09T05:45:38.688Z,719.08
2016-11-09T05:46:38.664Z,719.25
2016-11-09T05:47:38.634Z,719.17
2016-11-09T05:48:38.611Z,719.06
2016-11-09T05:49:38.581Z,719.17
2016-11-09T05:50:38.553Z,719.23
2016-11-09T05:51:38.533Z,719.09
2016-11-09T05:52:38.607Z,719.21
2016-11-09T05:53:38.479Z,719.1
2016-11-09T05:54:38.446Z,719.18
2016-11-09T05:55:38.420Z,719.1
2016-11-09T05:56:38.404Z,719.06
2016-11-09T05:57:38.365Z,719.11
2016-11-09T05:58:38.345Z,719.18
2016-11-09T05:59:38.317Z,719.17
2016-11-09T06:00:38.290Z,719.25
2016-11-09T06:01:38.256Z,719.21
2016-11-09T06:02:38.236Z,719.1
2016-11-09T06:03:38.215Z,719.23
2016-11-09T06:04:38.173Z,719.3
2016-11-09T06:05:38.154Z,719.07
2016-11-09T06:06:38.120Z,719.17
2016-11-09T06:07:38.100Z,719.23
2016-11-09T06:08:38.072Z,719.17
2016-11-09T06:09:38.038Z,719.17
2016-11-09T06:10:38.019Z,719.15
2016-11-09T06:11:37.991Z,719
2016-11-09T06:12:37.963Z,719.09
2016-11-09T06:13:37.929Z,719.1
2016-11-09T06:14:37.909Z,719.2
2016-11-09T06:15:37.881Z,719.17
2016-11-09T06:16:37.854Z,719.17
2016-11-09T06:17:37.821Z,719.09
2016-11-09T06:18:37.795Z,719.11
2016-11-09T06:19:37.767Z,719.03
2016-11-09T06:20:37.746Z,719.22
2016-11-09T06:21:37.712Z,719.19
2016-11-09T06:22:37.693Z,719.11
2016-11-09T06:23:37.658Z,719.21
2016-11-09T06:24:37.631Z,719.13
2016-11-09T06:25:37.606Z,719.13
2016-11-09T06:26:37.584Z,719.13
2016-11-09T06:27:37.557Z,719.01
2016-11-09T06:28:37.531Z,719.14
2016-11-09T06:29:37.505Z,719.03
2016-11-09T06:30:37.477Z,718.97
2016-11-09T06:31:37.443Z,719.03
2016-11-09T06:32:37.424Z,719
2016-11-09T06:33:37.390Z,719.01
2016-11-09T06:34:37.565Z,718.96
2016-11-09T06:35:37.343Z,719.15
2016-11-09T06:36:37.310Z,719.16
2016-11-09T06:37:37.283Z,719.12
2016-11-09T06:38:37.255Z,719.16
2016-11-09T06:39:37.236Z,718.96
2016-11-09T06:40:37.203Z,718.94
2016-11-09T06:41:37.174Z,719.08
2016-11-09T06:42:37.149Z,719.09
2016-11-09T06:43:37.122Z,719.03
2016-11-09T06:44:37.095Z,718.98
2016-11-09T06:45:37.075Z,719.03
2016-11-09T06:46:37.042Z,719.15
2016-11-09T06:47:37.017Z,719.11
2016-11-09T06:48:36.999Z,719.12
2016-11-09T06:49:36.962Z,719.11
2016-11-09T06:50:36.936Z,719.04
2016-11-09T06:51:36.917Z,719.04
2016-11-09T06:52:36.891Z,719.05
2016-11-09T06:53:36.864Z,719.04
2016-11-09T06:54:36.839Z,719.11
2016-11-09T06:55:36.806Z,719
2016-11-09T06:56:36.780Z,718.98
2016-11-09T06:57:36.760Z,718.97
2016-11-09T06:58:36.735Z,719.09
2016-11-09T06:59:36.702Z,719.08
2016-11-09T07:00:36.683Z,719.11
2016-11-09T07:01:36.658Z,719.04
2016-11-09T07:02:36.633Z,719.11
2016-11-09T07:03:36.599Z,719.07
2016-11-09T07:04:36.575Z,719.12
2016-11-09T07:05:36.556Z,719.02
2016-11-09T07:06:36.524Z,719.09
2016-11-09T07:07:36.505Z,719.12
2016-11-09T07:08:36.473Z,719.12
2016-11-09T07:09:36.455Z,719.08
2016-11-09T07:10:36.429Z,719.08
2016-11-09T07:11:36.397Z,719.17
2016-11-09T07:12:36.379Z,719.13
2016-11-09T07:13:36.355Z,719.05
2016-11-09T07:14:36.329Z,719.22
2016-11-09T07:15:36.304Z,719.07
2016-11-09T07:16:36.273Z,719.22
2016-11-09T07:17:36.255Z,719.17
2016-11-09T07:18:36.223Z,719.17
2016-11-09T07:19:36.198Z,719.18
2016-11-09T07:20:36.180Z,719.18
2016-11-09T07:21:36.146Z,719.11
2016-11-09T07:22:36.129Z,719.23
2016-11-09T07:23:36.097Z,719.15
2016-11-09T07:24:36.079Z,719.25
2016-11-09T07:25:36.054Z,719.22
2016-11-09T07:26:36.029Z,719.29
2016-11-09T07:27:35.997Z,719.2
2016-11-09T07:28:35.973Z,719.12
2016-11-09T07:29:35.948Z,719.16
2016-11-09T07:30:35.923Z,719.08
2016-11-09T07:31:35.906Z,719.17
2016-11-09T07:32:35.881Z,719.14
2016-11-09T07:33:35.850Z,719.14
2016-11-09T07:34:35.823Z,719.21
2016-11-09T07:35:35.800Z,719.21
2016-11-09T07:36:35.780Z,719.18
2016-11-09T07:37:35.749Z,719.13
2016-11-09T07:38:35.730Z,719.18
2016-11-09T07:39:35.698Z,719.29
2016-11-09T07:40:35.679Z,719.11
2016-11-09T07:41:35.655Z,719.14
2016-11-09T07:42:35.623Z,719.1
2016-11-09T07:43:35.596Z,719.2
2016-11-09T07:44:35.572Z,719.15
2016-11-09T07:45:35.546Z,719.2
2016-11-09T07:46:35.530Z,719.21
2016-11-09T07:47:35.503Z,719.17
2016-11-09T07:48:35.471Z,718.98
2016-11-09T07:49:35.453Z,719.13
2016-11-09T07:50:35.427Z,719.09
2016-11-09T07:51:35.402Z,719.03
2016-11-09T07:52:35.370Z,719.04
2016-11-09T07:53:35.346Z,719.17
2016-11-09T07:54:35.319Z,719.16
2016-11-09T07:55:35.295Z,719.11
2016-11-09T07:56:35.276Z,719.11
2016-11-09T07:57:35.244Z,719.15
2016-11-09T07:58:35.218Z,719.14
2016-11-09T07:59:35.201Z,719.19
2016-11-09T08:00:35.176Z,719.25
2016-11-09T08:01:35.150Z,719.26
2016-11-09T08:02:35.118Z,719.15
2016-11-09T08:03:35.093Z,719.17
2016-11-09T08:04:35.069Z,719.13
2016-11-09T08:05:35.050Z,719.17
2016-11-09T08:06:35.019Z,719.1
2016-11-09T08:07:34.994Z,719.11
2016-11-09T08:08:34.976Z,719.14
2016-11-09T08:09:34.951Z,719.18
2016-11-09T08:10:34.919Z,719.1
2016-11-09T08:11:34.894Z,719.21
2016-11-09T08:12:34.876Z,719.32
2016-11-09T08:13:34.851Z,719.24
2016-11-09T08:14:34.820Z,719.3
2016-11-09T08:15:34.795Z,719.27
2016-11-09T08:16:34.769Z,719.33
2016-11-09T08:17:34.745Z,719.21
2016-11-09T08:18:34.720Z,719.29
2016-11-09T08:19:34.697Z,719.24
2016-11-09T08:20:34.672Z,719.23
2016-11-09T08:21:34.653Z,719.29
2016-11-09T08:22:34.629Z,719.2
2016-11-09T08:23:34.603Z,719.19
2016-11-09T08:24:34.573Z,719.21
2016-11-09T08:25:34.547Z,719.31
2016-11-09T08:26:34.523Z,719.41
2016-11-09T08:27:34.497Z,719.35
2016-11-09T08:28:34.474Z,719.38
2016-11-09T08:29:34.455Z,719.32
2016-11-09T08:30:34.477Z,719.21
2016-11-09T08:31:34.406Z,719.36
2016-11-09T08:32:34.381Z,719.33
2016-11-09T08:33:34.357Z,719.37
2016-11-09T08:34:34.331Z,719.3
2016-11-09T08:35:34.307Z,719.38
2016-11-09T08:36:34.282Z,719.35
2016-11-09T08:37:34.251Z,719.46
2016-11-09T08:38:34.232Z,719.26
2016-11-09T08:39:34.201Z,719.21
2016-11-09T08:40:34.370Z,719.11
2016-11-09T08:41:34.159Z,719.26
2016-11-09T08:42:34.127Z,719.17
2016-11-09T08:43:34.110Z,719.43
2016-11-09T08:44:34.080Z,719.38
2016-11-09T08:45:34.062Z,719.34
2016-11-09T08:46:34.030Z,719.4
2016-11-09T08:47:34.014Z,719.26
2016-11-09T08:48:33.990Z,719.22
2016-11-09T08:49:33.959Z,719.41
2016-11-09T08:50:33.943Z,719.2
2016-11-09T08:51:33.920Z,719.46
2016-11-09T08:52:33.897Z,719.32
2016-11-09T08:53:33.865Z,719.45
2016-11-09T08:54:33.844Z,719.29
2016-11-09T08:55:33.827Z,719.42
2016-11-09T08:56:33.803Z,719.38
2016-11-09T08:57:33.773Z,719.43
2016-11-09T08:58:33.752Z,719.59
2016-11-09T08:59:33.729Z,719.36
2016-11-09T09:00:33.705Z,719.41
2016-11-09T09:01:33.682Z,719.4
2016-11-09T09:02:33.659Z,719.27
2016-11-09T09:03:33.644Z,719.49
2016-11-09T09:04:33.615Z,719.49
2016-11-09T09:05:33.599Z,719.51
2016-11-09T09:06:33.577Z,719.52
2016-11-09T09:07:33.553Z,719.61
2016-11-09T09:08:33.525Z,719.38
2016-11-09T09:09:33.509Z,719.55
2016-11-09T09:10:33.486Z,719.54
2016-11-09T09:11:33.464Z,719.57
2016-11-09T09:12:33.440Z,719.59
2016-11-09T09:13:33.410Z,719.37
2016-11-09T09:14:33.395Z,719.4
2016-11-09T09:15:33.365Z,719.53
2016-11-09T09:16:33.351Z,719.66
2016-11-09T09:17:33.323Z,719.69
2016-11-09T09:18:33.306Z,719.65
2016-11-09T09:19:33.284Z,719.66
2016-11-09T09:20:33.255Z,719.65
2016-11-09T09:21:33.235Z,719.75
2016-11-09T09:22:33.211Z,719.68
2016-11-09T09:23:33.189Z,719.65
2016-11-09T09:24:33.165Z,719.76
2016-11-09T09:25:33.149Z,719.71
2016-11-09T09:26:33.127Z,719.62
2016-11-09T09:27:33.097Z,719.7
2016-11-09T09:28:33.076Z,719.78
2016-11-09T09:29:33.058Z,719.63
2016-11-09T09:30:33.035Z,719.71
2016-11-09T09:31:33.013Z,719.78
2016-11-09T09:32:32.987Z,719.65
2016-11-09T09:33:32.959Z,719.59
2016-11-09T09:34:32.944Z,719.62
2016-11-09T09:35:32.922Z,719.75
2016-11-09T09:36:32.898Z,719.62
2016-11-09T09:37:32.876Z,719.77
2016-11-09T09:38:32.847Z,719.68
2016-11-09T09:39:32.831Z,719.82
2016-11-09T09:40:32.801Z,719.69
2016-11-09T09:41:32.790Z,719.71
2016-11-09T09:42:32.761Z,719.82
2016-11-09T09:43:32.739Z,719.74
2016-11-09T09:44:32.707Z,719.8
2016-11-09T09:45:32.686Z,719.75
2016-11-09T09:46:32.670Z,719.77
2016-11-09T09:47:32.640Z,719.83
2016-11-09T09:48:32.624Z,719.76
2016-11-09T09:49:32.595Z,719.72
2016-11-09T09:50:32.579Z,719.73
2016-11-09T09:51:32.766Z,719.68
2016-11-09T09:52:32.533Z,719.65
2016-11-09T09:53:32.504Z,719.63
2016-11-09T09:54:32.489Z,719.66
2016-11-09T09:55:32.465Z,719.62
2016-11-09T09:56:32.443Z,719.69
2016-11-09T09:57:32.421Z,719.58
2016-11-09T09:58:32.391Z,719.77
2016-11-09T09:59:32.376Z,719.74
2016-11-09T10:00:32.348Z,719.61
2016-11-09T10:01:32.332Z,719.58
2016-11-09T10:02:32.309Z,719.55
2016-11-09T10:03:32.281Z,719.53
2016-11-09T10:04:32.265Z,719.53
2016-11-09T10:05:32.243Z,719.61
2016-11-09T10:06:32.213Z,719.59
2016-11-09T10:07:32.190Z,719.66
2016-11-09T10:08:32.175Z,719.64
2016-11-09T10:09:32.145Z,719.61
2016-11-09T10:10:32.123Z,719.65
2016-11-09T10:11:32.102Z,719.62
2016-11-09T10:12:32.086Z,719.7
2016-11-09T10:13:32.064Z,719.58
2016-11-09T10:14:32.034Z,719.51
2016-11-09T10:15:32.020Z,719.49
2016-11-09T10:16:31.991Z,719.71
2016-11-09T10:17:31.975Z,719.71
2016-11-09T10:18:31.946Z,719.55
2016-11-09T10:19:31.924Z,719.62
2016-11-09T10:20:31.908Z,719.6
2016-11-09T10:21:31.886Z,719.68
2016-11-09T10:22:31.865Z,719.57
2016-11-09T10:23:31.835Z,719.76
2016-11-09T10:24:31.820Z,719.67
2016-11-09T10:25:31.798Z,719.54
2016-11-09T10:26:31.780Z,719.68
2016-11-09T10:27:31.755Z,719.55
2016-11-09T10:28:31.724Z,719.51
2016-11-09T10:29:31.710Z,719.68
2016-11-09T10:30:31.688Z,719.65
2016-11-09T10:31:31.659Z,719.66
2016-11-09T10:32:31.636Z,719.54
2016-11-09T10:33:31.621Z,719.36
2016-11-09T10:34:31.592Z,719.48
2016-11-09T10:35:31.576Z,719.52
2016-11-09T10:36:31.548Z,719.56
2016-11-09T10:37:31.532Z,719.59
2016-11-09T10:38:31.510Z,719.57
2016-11-09T10:39:31.481Z,719.38
2016-11-09T10:40:31.467Z,719.44
2016-11-09T10:41:31.439Z,719.46
2016-11-09T10:42:31.415Z,719.53
2016-11-09T10:43:31.394Z,719.38
2016-11-09T10:44:31.371Z,719.48
2016-11-09T10:45:31.356Z,719.5
2016-11-09T10:46:31.333Z,719.48
2016-11-09T10:47:31.311Z,719.45
2016-11-09T10:48:31.289Z,719.55
2016-11-09T10:49:31.267Z,719.56
2016-11-09T10:50:31.236Z,719.4
2016-11-09T10:51:31.222Z,719.43
2016-11-09T10:52:31.192Z,719.45
2016-11-09T10:53:31.176Z,719.43
2016-11-09T10:54:31.148Z,719.33
2016-11-09T10:55:31.136Z,719.27
2016-11-09T10:56:31.110Z,719.37
2016-11-09T10:57:31.080Z,719.35
2016-11-09T10:58:31.064Z,719.51
2016-11-09T10:59:31.041Z,719.29
2016-11-09T11:00:31.018Z,719.43
2016-11-09T11:01:30.996Z,719.27
2016-11-09T11:02:30.974Z,719.45
2016-11-09T11:03:30.952Z,719.44
2016-11-09T11:04:30.922Z,719.43
2016-11-09T11:05:30.907Z,719.42
2016-11-09T11:06:30.879Z,719.46
2016-11-09T11:07:30.857Z,719.44
2016-11-09T11:08:30.834Z,719.43
2016-11-09T11:09:30.819Z,719.4
2016-11-09T11:10:30.798Z,719.49
2016-11-09T11:11:30.776Z,719.51
2016-11-09T11:12:30.748Z,719.51
2016-11-09T11:13:30.734Z,719.53
2016-11-09T11:14:30.706Z,719.46
2016-11-09T11:15:30.691Z,719.52
2016-11-09T11:16:30.664Z,719.63
2016-11-09T11:17:30.641Z,719.54
2016-11-09T11:18:30.628Z,719.56
2016-11-09T11:19:30.600Z,719.61
2016-11-09T11:20:30.579Z,719.61
2016-11-09T11:21:30.564Z,719.63
2016-11-09T11:22:30.542Z,719.68
2016-11-09T11:23:30.521Z,719.6
2016-11-09T11:24:30.500Z,719.6
2016-11-09T11:25:30.479Z,719.52
2016-11-09T11:26:30.456Z,719.57
2016-11-09T11:27:30.435Z,719.61
2016-11-09T11:28:30.408Z,719.55
2016-11-09T11:29:30.385Z,719.57
2016-11-09T11:30:30.363Z,719.59
2016-11-09T11:31:30.343Z,719.55
2016-11-09T11:32:30.320Z,719.51
2016-11-09T11:33:30.305Z,719.49
2016-11-09T11:34:30.278Z,719.45
2016-11-09T11:35:30.256Z,719.57
2016-11-09T11:36:30.233Z,719.52
2016-11-09T11:37:30.212Z,719.53
2016-11-09T11:38:30.196Z,719.47
2016-11-09T11:39:30.175Z,719.46
2016-11-09T11:40:30.156Z,719.52
2016-11-09T11:41:30.125Z,719.6
2016-11-09T11:42:30.103Z,719.51
2016-11-09T11:43:30.088Z,719.47
2016-11-09T11:44:30.065Z,719.47
2016-11-09T11:45:30.036Z,719.48
2016-11-09T11:46:30.015Z,719.54
2016-11-09T11:47:29.993Z,719.58
2016-11-09T11:48:29.979Z,719.51
2016-11-09T11:49:29.951Z,719.42
2016-11-09T11:50:29.937Z,719.53
2016-11-09T11:51:29.910Z,719.51
2016-11-09T11:52:29.887Z,719.3
2016-11-09T11:53:29.877Z,719.38
2016-11-09T11:54:29.851Z,719.48
2016-11-09T11:55:29.829Z,719.36
2016-11-09T11:56:29.807Z,719.22
2016-11-09T11:57:29.786Z,719.4
2016-11-09T11:58:29.765Z,719.43
2016-11-09T11:59:29.736Z,719.48
2016-11-09T12:00:29.723Z,719.49
2016-11-09T12:01:29.702Z,719.44
2016-11-09T12:02:29.675Z,719.42
2016-11-09T12:03:29.660Z,719.36
2016-11-09T12:04:29.639Z,719.3
2016-11-09T12:05:29.618Z,719.22
2016-11-09T12:06:29.597Z,719.09
2016-11-09T12:07:29.576Z,719.37
2016-11-09T12:08:29.548Z,719.32
2016-11-09T12:09:29.535Z,719.19
2016-11-09T12:10:29.512Z,719.01
2016-11-09T12:11:29.492Z,719.26
2016-11-09T12:12:29.463Z,719.22
2016-11-09T12:13:29.443Z,719.3
2016-11-09T12:14:29.421Z,719.21
2016-11-09T12:15:29.401Z,719.27
2016-11-09T12:16:29.390Z,719.32
2016-11-09T12:17:29.364Z,719.25
2016-11-09T12:18:29.336Z,719.34
2016-11-09T12:19:29.322Z,719.2
2016-11-09T12:20:29.301Z,719.31
2016-11-09T12:21:29.279Z,719.46
2016-11-09T12:22:29.258Z,719.14
2016-11-09T12:23:29.230Z,719.29
2016-11-09T12:24:29.209Z,719.31
2016-11-09T12:25:29.188Z,719.49
2016-11-09T12:26:29.166Z,719.29
2016-11-09T12:27:29.152Z,719.26
2016-11-09T12:28:29.124Z,719.19
2016-11-09T12:29:29.109Z,719.2
2016-11-09T12:30:29.087Z,719.11
2016-11-09T12:31:29.059Z,719.01